Oria, Spain
Current Conditions -  °F | °C
As of 3:30 PM on Tuesday 21 Oct 2014 (Local Time) from LESO Reporting Station
Broken Clouds Broken Clouds  
Wind Chill: 70°   Ceiling: 2000
Heat Index: 70°   Visibility: 6mi
Dew Point: 64°   Wind: 7mph
Humidity: 83%   Direction: NA
Pressure: 30.27"   Gusts: 21mph
Location:  43.26°N, 2.02°W
Report Text: LESO 211330Z VRB06G18KT 9999 FEW015 BKN020 21/18 Q1025
Loading
Personal Weather Stations






























Interactive Weather Map
Tropical Storm Tracking
New forecast layout! Learn more

10-Day Weather Forecast

Advertisements
Track Severe Weather on mobile